createdAt,value
2017-05-17T00:00:13.528Z,56.21
2017-05-17T00:00:53.970Z,56.28
2017-05-17T00:01:34.359Z,56.47
2017-05-17T00:02:14.782Z,56.28
2017-05-17T00:02:55.193Z,57.04
2017-05-17T00:03:35.606Z,56.95
2017-05-17T00:04:16.008Z,56.76
2017-05-17T00:04:56.404Z,57.04
2017-05-17T00:05:36.888Z,57.24
2017-05-17T00:06:17.326Z,57.33
2017-05-17T00:06:57.787Z,57.24
2017-05-17T00:07:38.272Z,57.24
2017-05-17T00:08:18.633Z,57.14
2017-05-17T00:08:59.056Z,57.14
2017-05-17T00:09:39.486Z,57.24
2017-05-17T00:10:19.902Z,57.14
2017-05-17T00:11:00.325Z,57.04
2017-05-17T00:11:40.698Z,57.04
2017-05-17T00:12:21.237Z,57.14
2017-05-17T00:13:02.519Z,57.53
2017-05-17T00:13:42.942Z,57.24
2017-05-17T00:14:23.412Z,57.14
2017-05-17T00:15:06.462Z,57.71
2017-05-17T00:15:46.855Z,57.81
2017-05-17T00:16:27.237Z,57.81
2017-05-17T00:17:07.707Z,57.81
2017-05-17T00:17:48.069Z,57.81
2017-05-17T00:18:29.106Z,57.81
2017-05-17T00:19:10.216Z,57.81
2017-05-17T00:19:52.946Z,57.9
2017-05-17T00:20:34.160Z,57.71
2017-05-17T00:21:15.335Z,57.53
2017-05-17T00:21:55.769Z,57.43
2017-05-17T00:22:36.210Z,58
2017-05-17T00:23:16.640Z,57.9
2017-05-17T00:23:58.655Z,57.9
2017-05-17T00:24:39.089Z,57.71
2017-05-17T00:25:19.483Z,58.29
2017-05-17T00:26:00.574Z,58.48
2017-05-17T00:26:41.470Z,58.19
2017-05-17T00:27:22.628Z,58.73
2017-05-17T00:28:03.026Z,58.58
2017-05-17T00:28:43.415Z,59.02
2017-05-17T00:29:23.860Z,59.02
2017-05-17T00:30:04.310Z,59.05
2017-05-17T00:30:44.778Z,59.02
2017-05-17T00:31:25.175Z,59.22
2017-05-17T00:32:06.390Z,59.12
2017-05-17T00:32:46.763Z,58.83
2017-05-17T00:33:27.871Z,58.93
2017-05-17T00:34:09.919Z,59.31
2017-05-17T00:34:52.062Z,59.02
2017-05-17T00:35:36.340Z,58.95
2017-05-17T00:36:16.846Z,59.05
2017-05-17T00:36:57.200Z,59.22
2017-05-17T00:37:37.622Z,59.34
2017-05-17T00:38:18.023Z,59.12
2017-05-17T00:38:58.446Z,59.24
2017-05-17T00:39:38.895Z,59.02
2017-05-17T00:40:20.089Z,58.86
2017-05-17T00:41:00.486Z,58.93
2017-05-17T00:41:40.908Z,59.24
2017-05-17T00:42:21.318Z,59.44
2017-05-17T00:43:02.757Z,59.12
2017-05-17T00:43:43.136Z,59.5
2017-05-17T00:44:23.589Z,59.02
2017-05-17T00:45:03.995Z,59.69
2017-05-17T00:45:44.353Z,58.93
2017-05-17T00:46:24.834Z,58.76
2017-05-17T00:47:05.279Z,59.5
2017-05-17T00:47:45.664Z,59.63
2017-05-17T00:48:26.084Z,59.59
2017-05-17T00:49:06.460Z,59.69
2017-05-17T00:49:47.021Z,59.41
2017-05-17T00:50:27.371Z,59.41
2017-05-17T00:51:07.756Z,59.41
2017-05-17T00:51:48.250Z,59.88
2017-05-17T00:52:28.632Z,59.88
2017-05-17T00:53:08.998Z,60.17
2017-05-17T00:53:49.454Z,59.78
2017-05-17T00:54:29.909Z,59.88
2017-05-17T00:55:10.365Z,59.88
2017-05-17T00:55:50.762Z,60.07
2017-05-17T00:56:31.216Z,60.27
2017-05-17T00:57:11.558Z,60.55
2017-05-17T00:57:51.958Z,60.36
2017-05-17T00:58:32.426Z,60.36
2017-05-17T00:59:12.969Z,60.46
2017-05-17T00:59:53.355Z,60.36
2017-05-17T01:00:33.785Z,60.36
2017-05-17T01:01:14.206Z,60.17
2017-05-17T01:01:54.628Z,60.27
2017-05-17T01:02:35.082Z,60.27
2017-05-17T01:03:15.501Z,60.07
2017-05-17T01:03:55.908Z,60.07
2017-05-17T01:04:36.310Z,60.55
2017-05-17T01:05:16.741Z,60.84
2017-05-17T01:05:57.154Z,60.55
2017-05-17T01:06:37.577Z,60.74
2017-05-17T01:07:18.005Z,60.74
2017-05-17T01:07:58.514Z,61.03
2017-05-17T01:08:38.947Z,60.93
2017-05-17T01:09:19.325Z,60.84
2017-05-17T01:09:59.787Z,60.93
2017-05-17T01:10:40.182Z,60.55
2017-05-17T01:11:20.631Z,60.74
2017-05-17T01:12:01.029Z,61.03
2017-05-17T01:12:41.481Z,60.74
2017-05-17T01:13:21.901Z,60.84
2017-05-17T01:14:02.262Z,60.84
2017-05-17T01:14:42.691Z,60.64
2017-05-17T01:15:23.111Z,60.64
2017-05-17T01:16:03.517Z,60.55
2017-05-17T01:16:43.946Z,60.84
2017-05-17T01:17:24.463Z,60.84
2017-05-17T01:18:04.900Z,60.84
2017-05-17T01:18:45.323Z,60.84
2017-05-17T01:19:25.718Z,60.64
2017-05-17T01:20:06.147Z,60.64
2017-05-17T01:20:46.567Z,60.74
2017-05-17T01:21:26.990Z,60.74
2017-05-17T01:22:07.353Z,60.64
2017-05-17T01:22:47.784Z,60.64
2017-05-17T01:23:28.179Z,60.84
2017-05-17T01:24:08.573Z,60.84
2017-05-17T01:24:49.000Z,60.55
2017-05-17T01:25:29.396Z,60.93
2017-05-17T01:26:09.856Z,60.93
2017-05-17T01:26:50.233Z,60.93
2017-05-17T01:27:30.695Z,61.13
2017-05-17T01:28:11.083Z,60.84
2017-05-17T01:28:51.518Z,61.41
2017-05-17T01:29:31.909Z,61.69
2017-05-17T01:30:12.328Z,61.22
2017-05-17T01:30:52.753Z,61.51
2017-05-17T01:31:33.170Z,61.6
2017-05-17T01:32:13.618Z,61.51
2017-05-17T01:32:53.969Z,61.69
2017-05-17T01:33:34.412Z,61.13
2017-05-17T01:34:14.799Z,61.51
2017-05-17T01:34:55.187Z,61.51
2017-05-17T01:35:35.621Z,61.51
2017-05-17T01:36:16.008Z,61.41
2017-05-17T01:36:56.447Z,61.51
2017-05-17T01:37:36.846Z,61.51
2017-05-17T01:38:17.227Z,61.79
2017-05-17T01:38:57.684Z,61.69
2017-05-17T01:39:38.087Z,61.89
2017-05-17T01:40:18.509Z,61.98
2017-05-17T01:40:58.903Z,61.89
2017-05-17T01:41:39.263Z,62.08
2017-05-17T01:42:19.658Z,61.98
2017-05-17T01:43:00.103Z,62.18
2017-05-17T01:43:40.527Z,62.18
2017-05-17T01:44:20.960Z,61.98
2017-05-17T01:45:01.346Z,61.89
2017-05-17T01:45:41.814Z,62.55
2017-05-17T01:46:22.240Z,62.55
2017-05-17T01:47:02.634Z,62.46
2017-05-17T01:47:43.057Z,62.27
2017-05-17T01:48:23.462Z,62.55
2017-05-17T01:49:03.900Z,62.55
2017-05-17T01:49:44.378Z,62.18
2017-05-17T01:50:24.784Z,62.27
2017-05-17T01:51:05.142Z,62.37
2017-05-17T01:51:45.579Z,62.18
2017-05-17T01:52:25.976Z,62.37
2017-05-17T01:53:06.407Z,62.37
2017-05-17T01:53:46.798Z,62.46
2017-05-17T01:54:27.192Z,62.46
2017-05-17T01:55:07.637Z,62.65
2017-05-17T01:55:48.080Z,62.84
2017-05-17T01:56:28.514Z,62.65
2017-05-17T01:57:08.916Z,62.65
2017-05-17T01:57:49.365Z,62.46
2017-05-17T01:58:29.836Z,62.84
2017-05-17T01:59:10.227Z,62.55
2017-05-17T01:59:50.570Z,62.37
2017-05-17T02:00:30.984Z,62.55
2017-05-17T02:01:11.404Z,62.65
2017-05-17T02:01:51.817Z,62.94
2017-05-17T02:02:32.215Z,62.55
2017-05-17T02:03:12.653Z,62.37
2017-05-17T02:03:53.072Z,62.37
2017-05-17T02:04:33.480Z,62.37
2017-05-17T02:05:13.846Z,62.46
2017-05-17T02:05:54.289Z,62.55
2017-05-17T02:06:34.681Z,62.65
2017-05-17T02:07:15.073Z,62.84
2017-05-17T02:07:55.534Z,62.75
2017-05-17T02:08:35.979Z,63.03
2017-05-17T02:09:16.380Z,62.84
2017-05-17T02:09:56.771Z,62.94
2017-05-17T02:10:37.205Z,63.32
2017-05-17T02:11:17.551Z,63.23
2017-05-17T02:11:57.990Z,62.94
2017-05-17T02:12:38.432Z,62.55
2017-05-17T02:13:18.821Z,63.13
2017-05-17T02:13:59.227Z,63.23
2017-05-17T02:14:39.616Z,63.48
2017-05-17T02:15:20.071Z,63.32
2017-05-17T02:16:00.486Z,63.7
2017-05-17T02:16:41.014Z,63.29
2017-05-17T02:17:21.375Z,63.48
2017-05-17T02:18:01.850Z,63.29
2017-05-17T02:18:42.258Z,63.86
2017-05-17T02:19:22.651Z,63.86
2017-05-17T02:20:03.039Z,63.48
2017-05-17T02:20:43.501Z,63.89
2017-05-17T02:21:23.985Z,63.42
2017-05-17T02:22:04.364Z,63.32
2017-05-17T02:22:44.789Z,63.32
2017-05-17T02:23:25.241Z,63.51
2017-05-17T02:24:05.642Z,63.42
2017-05-17T02:24:46.009Z,63.51
2017-05-17T02:25:28.014Z,62.84
2017-05-17T02:26:08.428Z,63.13
2017-05-17T02:26:48.807Z,63.32
2017-05-17T02:27:29.268Z,63.42
2017-05-17T02:28:09.717Z,63.42
2017-05-17T02:28:50.147Z,63.7
2017-05-17T02:29:30.665Z,63.7
2017-05-17T02:30:11.084Z,63.32
2017-05-17T02:30:51.614Z,63.51
2017-05-17T02:31:31.952Z,63.6
2017-05-17T02:32:12.392Z,63.23
2017-05-17T02:32:52.761Z,63.89
2017-05-17T02:33:33.206Z,63.51
2017-05-17T02:34:13.645Z,63.51
2017-05-17T02:34:54.084Z,63.51
2017-05-17T02:35:34.512Z,63.23
2017-05-17T02:36:14.880Z,63.51
2017-05-17T02:36:55.316Z,63.42
2017-05-17T02:37:35.748Z,63.51
2017-05-17T02:38:16.167Z,63.51
2017-05-17T02:38:56.575Z,63.32
2017-05-17T02:39:37.014Z,63.8
2017-05-17T02:40:17.444Z,63.32
2017-05-17T02:40:57.833Z,63.51
2017-05-17T02:41:38.259Z,63.32
2017-05-17T02:42:18.687Z,63.51
2017-05-17T02:42:59.060Z,63.51
2017-05-17T02:43:39.465Z,63.51
2017-05-17T02:44:19.911Z,63.42
2017-05-17T02:45:01.038Z,63.23
2017-05-17T02:45:41.433Z,63.23
2017-05-17T02:46:21.844Z,62.55
2017-05-17T02:47:02.238Z,62.84
2017-05-17T02:47:42.691Z,62.78
2017-05-17T02:48:23.109Z,63.07
2017-05-17T02:49:03.499Z,62.97
2017-05-17T02:49:43.934Z,63.07
2017-05-17T02:50:24.307Z,62.97
2017-05-17T02:51:04.726Z,62.87
2017-05-17T02:51:45.098Z,62.97
2017-05-17T02:52:25.540Z,63.26
2017-05-17T02:53:05.949Z,63.35
2017-05-17T02:53:46.387Z,62.87
2017-05-17T02:54:26.826Z,62.87
2017-05-17T02:55:07.242Z,62.68
2017-05-17T02:55:47.668Z,62.78
2017-05-17T02:56:28.071Z,62.68
2017-05-17T02:57:08.450Z,62.59
2017-05-17T02:57:48.826Z,62.62
2017-05-17T02:58:29.221Z,62.14
2017-05-17T02:59:09.654Z,62.43
2017-05-17T02:59:50.048Z,62.24
2017-05-17T03:00:30.484Z,62.24
2017-05-17T03:01:10.898Z,62.14
2017-05-17T03:01:51.298Z,61.95
2017-05-17T03:02:31.750Z,62.04
2017-05-17T03:03:12.139Z,61.95
2017-05-17T03:03:52.552Z,61.95
2017-05-17T03:04:32.969Z,61.95
2017-05-17T03:05:13.407Z,62.33
2017-05-17T03:05:53.806Z,62.14
2017-05-17T03:06:34.244Z,62.62
2017-05-17T03:07:14.676Z,62.43
2017-05-17T03:07:55.104Z,62.43
2017-05-17T03:08:35.478Z,62.43
2017-05-17T03:09:15.938Z,62.59
2017-05-17T03:09:56.356Z,62.43
2017-05-17T03:10:36.803Z,62.24
2017-05-17T03:11:17.257Z,62.21
2017-05-17T03:11:57.668Z,62.21
2017-05-17T03:12:38.137Z,62.21
2017-05-17T03:13:18.516Z,62.3
2017-05-17T03:13:58.968Z,62.49
2017-05-17T03:14:39.361Z,62.87
2017-05-17T03:15:19.748Z,62.59
2017-05-17T03:16:00.183Z,62.68
2017-05-17T03:16:40.602Z,62.87
2017-05-17T03:17:20.970Z,62.78
2017-05-17T03:18:01.425Z,62.97
2017-05-17T03:18:41.871Z,63.26
2017-05-17T03:19:22.307Z,63.26
2017-05-17T03:20:02.699Z,63.26
2017-05-17T03:20:43.132Z,63.26
2017-05-17T03:21:23.609Z,62.97
2017-05-17T03:22:04.022Z,63.07
2017-05-17T03:22:44.389Z,63.35
2017-05-17T03:23:24.849Z,63.35
2017-05-17T03:24:05.211Z,63.6
2017-05-17T03:24:47.602Z,63.23
2017-05-17T03:25:29.513Z,63.8
2017-05-17T03:26:09.952Z,63.6
2017-05-17T03:26:50.398Z,63.51
2017-05-17T03:27:30.859Z,63.6
2017-05-17T03:28:11.263Z,63.99
2017-05-17T03:28:51.672Z,63.99
2017-05-17T03:29:32.115Z,64.09
2017-05-17T03:30:13.299Z,64.18
2017-05-17T03:30:53.686Z,64.18
2017-05-17T03:31:34.134Z,63.89
2017-05-17T03:32:14.542Z,64.09
2017-05-17T03:32:54.997Z,64.28
2017-05-17T03:33:35.381Z,64.09
2017-05-17T03:34:16.401Z,64.47
2017-05-17T03:34:56.818Z,64.94
2017-05-17T03:35:37.247Z,64.37
2017-05-17T03:36:17.613Z,64.65
2017-05-17T03:36:58.035Z,64.75
2017-05-17T03:37:38.536Z,64.81
2017-05-17T03:38:18.907Z,64.81
2017-05-17T03:38:59.324Z,65.01
2017-05-17T03:39:39.781Z,65.48
2017-05-17T03:40:20.163Z,65.3
2017-05-17T03:41:00.620Z,65.3
2017-05-17T03:41:40.988Z,65.3
2017-05-17T03:42:21.425Z,65.1
2017-05-17T03:43:01.785Z,65.1
2017-05-17T03:43:42.213Z,65.3
2017-05-17T03:44:22.643Z,65.39
2017-05-17T03:45:03.062Z,65.1
2017-05-17T03:45:43.511Z,65.1
2017-05-17T03:46:23.873Z,65.3
2017-05-17T03:47:04.359Z,65.3
2017-05-17T03:47:44.800Z,65.1
2017-05-17T03:48:25.286Z,65.01
2017-05-17T03:49:05.720Z,65.01
2017-05-17T03:49:47.062Z,65.1
2017-05-17T03:50:27.457Z,65.2
2017-05-17T03:51:07.862Z,65.01
2017-05-17T03:51:48.294Z,65.01
2017-05-17T03:52:29.428Z,65.2
2017-05-17T03:53:12.410Z,65.01
2017-05-17T03:53:52.884Z,65.2
2017-05-17T03:54:33.288Z,65.3
2017-05-17T03:55:13.726Z,65.77
2017-05-17T03:55:54.908Z,65.67
2017-05-17T03:56:35.373Z,65.58
2017-05-17T03:57:17.692Z,65.67
2017-05-17T03:57:58.082Z,65.58
2017-05-17T03:58:38.509Z,65.96
2017-05-17T03:59:19.007Z,65.87
2017-05-17T03:59:59.337Z,65.77
2017-05-17T04:00:39.786Z,65.77
2017-05-17T04:01:21.233Z,66.06
2017-05-17T04:02:01.635Z,66.06
2017-05-17T04:02:42.060Z,65.87
2017-05-17T04:03:22.476Z,65.77
2017-05-17T04:04:03.776Z,66.06
2017-05-17T04:04:46.115Z,66.25
2017-05-17T04:05:26.439Z,66.35
2017-05-17T04:06:07.462Z,66.53
2017-05-17T04:06:50.529Z,66.35
2017-05-17T04:07:30.970Z,66.35
2017-05-17T04:08:11.367Z,66.25
2017-05-17T04:08:52.542Z,66.53
2017-05-17T04:09:32.925Z,66.53
2017-05-17T04:10:13.389Z,66.63
2017-05-17T04:10:53.837Z,66.92
2017-05-17T04:11:34.846Z,66.53
2017-05-17T04:12:15.977Z,66.72
2017-05-17T04:12:56.349Z,66.63
2017-05-17T04:13:36.746Z,67.01
2017-05-17T04:14:17.100Z,66.72
2017-05-17T04:14:57.520Z,66.72
2017-05-17T04:15:37.936Z,66.82
2017-05-17T04:16:20.620Z,66.53
2017-05-17T04:17:01.077Z,67.21
2017-05-17T04:17:41.444Z,67.11
2017-05-17T04:18:21.878Z,67.11
2017-05-17T04:19:02.280Z,67.01
2017-05-17T04:19:42.663Z,67.21
2017-05-17T04:20:23.053Z,67.21
2017-05-17T04:21:03.485Z,66.82
2017-05-17T04:21:43.893Z,67.11
2017-05-17T04:22:24.364Z,67.01
2017-05-17T04:23:04.825Z,67.11
2017-05-17T04:23:45.242Z,67.21
2017-05-17T04:24:25.615Z,67.21
2017-05-17T04:25:06.597Z,67.3
2017-05-17T04:25:47.034Z,67.4
2017-05-17T04:26:28.117Z,67.21
2017-05-17T04:27:09.252Z,67.01
2017-05-17T04:27:49.698Z,67.3
2017-05-17T04:28:32.571Z,67.3
2017-05-17T04:30:47.191Z,67.43
2017-05-17T04:31:27.921Z,67.05
2017-05-17T04:32:12.605Z,67.24
2017-05-17T04:34:28.826Z,67.05
2017-05-17T04:35:10.617Z,67.33
2017-05-17T04:39:13.194Z,66.85
2017-05-17T04:39:53.571Z,67.24
2017-05-17T04:40:33.974Z,67.33
2017-05-17T04:41:14.458Z,67.24
2017-05-17T04:41:55.129Z,67.24
2017-05-17T04:42:36.361Z,67.24
2017-05-17T04:43:16.771Z,67.24
2017-05-17T04:43:57.115Z,66.95
2017-05-17T04:44:37.557Z,67.14
2017-05-17T04:45:17.957Z,67.27
2017-05-17T04:45:58.427Z,66.89
2017-05-17T04:46:38.861Z,66.7
2017-05-17T04:47:19.255Z,66.6
2017-05-17T04:47:59.652Z,66.99
2017-05-17T04:48:40.107Z,66.7
2017-05-17T04:49:20.469Z,66.79
2017-05-17T04:50:00.852Z,66.89
2017-05-17T04:50:41.554Z,66.99
2017-05-17T04:51:21.692Z,67.08
2017-05-17T04:52:02.875Z,66.79
2017-05-17T04:52:43.224Z,66.6
2017-05-17T04:53:23.818Z,66.6
2017-05-17T04:54:04.216Z,66.7
2017-05-17T04:54:44.619Z,66.6
2017-05-17T04:55:25.018Z,66.63
2017-05-17T04:56:05.420Z,66.5
2017-05-17T04:56:47.073Z,66.35
2017-05-17T04:57:27.574Z,66.54
2017-05-17T04:58:07.988Z,66.44
2017-05-17T04:58:48.381Z,66.63
2017-05-17T04:59:28.811Z,66.54
2017-05-17T05:00:09.245Z,66.25
2017-05-17T05:00:49.607Z,65.87
2017-05-17T05:01:30.036Z,65.87
2017-05-17T05:02:10.521Z,65.97
2017-05-17T05:02:50.938Z,66.06
2017-05-17T05:03:31.413Z,66.09
2017-05-17T05:04:11.750Z,66
2017-05-17T05:04:52.199Z,66
2017-05-17T05:05:32.622Z,65.71
2017-05-17T05:06:13.068Z,65.71
2017-05-17T05:06:53.454Z,65.9
2017-05-17T05:07:33.936Z,65.33
2017-05-17T05:08:14.347Z,65.08
2017-05-17T05:08:55.756Z,65.26
2017-05-17T05:09:36.242Z,65.55
2017-05-17T05:10:18.135Z,64.88
2017-05-17T05:10:58.532Z,65.08
2017-05-17T05:11:40.745Z,65.08
2017-05-17T05:12:22.662Z,64.79
2017-05-17T05:13:03.737Z,64.98
2017-05-17T05:13:44.167Z,64.4
2017-05-17T05:14:25.235Z,65.01
2017-05-17T05:15:05.661Z,64.72
2017-05-17T05:15:46.318Z,64.53
2017-05-17T05:16:26.984Z,64.15
2017-05-17T05:17:07.386Z,64.15
2017-05-17T05:17:47.845Z,64.05
2017-05-17T05:18:28.237Z,64.47
2017-05-17T05:19:08.638Z,64.28
2017-05-17T05:19:49.158Z,63.8
2017-05-17T05:20:29.614Z,63.8
2017-05-17T05:21:10.067Z,63.8
2017-05-17T05:21:51.413Z,63.51
2017-05-17T05:22:31.863Z,63.03
2017-05-17T05:23:13.139Z,63.45
2017-05-17T05:23:56.144Z,63.06
2017-05-17T05:24:37.286Z,63.06
2017-05-17T05:25:18.303Z,62.68
2017-05-17T05:25:58.711Z,62.87
2017-05-17T05:26:39.189Z,62.49
2017-05-17T05:27:19.564Z,62.59
2017-05-17T05:27:59.942Z,62.42
2017-05-17T05:28:40.425Z,62.52
2017-05-17T05:29:20.822Z,61.94
2017-05-17T05:30:01.234Z,62.04
2017-05-17T05:30:41.637Z,61.85
2017-05-17T05:31:22.233Z,61.66
2017-05-17T05:32:02.660Z,61.56
2017-05-17T05:32:43.074Z,61.69
2017-05-17T05:33:23.554Z,61.49
2017-05-17T05:34:04.032Z,61.4
2017-05-17T05:34:44.947Z,61.21
2017-05-17T05:35:25.457Z,60.72
2017-05-17T05:36:06.080Z,61.11
2017-05-17T05:36:47.289Z,61.3
2017-05-17T05:37:28.446Z,61.02
2017-05-17T05:38:09.824Z,61.02
2017-05-17T05:38:50.721Z,61.02
2017-05-17T05:39:31.121Z,61.02
2017-05-17T05:40:12.245Z,60.75
2017-05-17T05:40:52.655Z,60.75
2017-05-17T05:41:32.996Z,60.75
2017-05-17T05:42:14.208Z,60.38
2017-05-17T05:42:54.553Z,60.28
2017-05-17T05:43:35.114Z,60.47
2017-05-17T05:44:15.601Z,60.47
2017-05-17T05:44:55.977Z,60.38
2017-05-17T05:45:36.483Z,60.38
2017-05-17T05:46:18.304Z,60.28
2017-05-17T05:47:06.478Z,60.4
2017-05-17T05:47:47.042Z,60.11
2017-05-17T05:48:27.392Z,59.83
2017-05-17T05:49:07.881Z,59.64
2017-05-17T05:49:49.191Z,59.54
2017-05-17T05:50:33.265Z,59.06
2017-05-17T05:51:13.740Z,59.64
2017-05-17T05:51:57.961Z,59.25
2017-05-17T05:52:38.854Z,59.57
2017-05-17T05:53:19.273Z,59.47
2017-05-17T05:54:02.384Z,59.09
2017-05-17T05:54:42.759Z,58.99
2017-05-17T05:55:23.865Z,58.7
2017-05-17T05:56:06.217Z,58.51
2017-05-17T05:56:47.267Z,57.84
2017-05-17T05:57:29.274Z,58.35
2017-05-17T05:58:09.782Z,58.06
2017-05-17T05:58:50.323Z,57.87
2017-05-17T05:59:30.793Z,57.58
2017-05-17T06:00:13.680Z,57.29
2017-05-17T06:00:55.746Z,57.58
2017-05-17T06:01:37.805Z,57.51
2017-05-17T06:02:18.355Z,57.7
2017-05-17T06:03:00.386Z,57.22
2017-05-17T06:03:42.424Z,57.22
2017-05-17T06:04:22.788Z,57.6
2017-05-17T06:05:03.933Z,56.84
2017-05-17T06:05:45.038Z,56.55
2017-05-17T06:06:26.088Z,56.26
2017-05-17T06:07:07.172Z,56.29
2017-05-17T06:07:47.620Z,55.81
2017-05-17T06:08:30.591Z,56
2017-05-17T06:09:12.164Z,55.71
2017-05-17T06:09:52.570Z,55.62
2017-05-17T06:10:32.988Z,55.33
2017-05-17T06:11:13.390Z,55.52
2017-05-17T06:11:53.747Z,55.26
2017-05-17T06:12:36.708Z,55.07
2017-05-17T06:13:17.076Z,54.97
2017-05-17T06:13:58.315Z,54.68
2017-05-17T06:14:38.780Z,54.8
2017-05-17T06:15:20.229Z,54.32
2017-05-17T06:16:02.359Z,53.94
2017-05-17T06:16:43.653Z,54.03
2017-05-17T06:17:24.060Z,53.74
2017-05-17T06:18:08.302Z,54.03
2017-05-17T06:18:52.200Z,53.96
2017-05-17T06:19:33.421Z,53.77
2017-05-17T06:20:14.682Z,53.48
2017-05-17T06:20:59.832Z,53.39
2017-05-17T06:21:41.084Z,53.19
2017-05-17T06:22:22.182Z,52.61
2017-05-17T06:23:04.532Z,53.13
2017-05-17T06:23:44.977Z,53.13
2017-05-17T06:24:25.363Z,52.83
2017-05-17T06:25:09.299Z,52.35
2017-05-17T06:25:49.690Z,52.73
2017-05-17T06:26:31.878Z,52.57
2017-05-17T06:27:13.002Z,52.67
2017-05-17T06:27:53.944Z,52.28
2017-05-17T06:28:35.648Z,52.09
2017-05-17T06:29:16.119Z,52.19
2017-05-17T06:29:57.297Z,52.28
2017-05-17T06:30:40.290Z,52.09
2017-05-17T06:31:21.720Z,51.73
2017-05-17T06:32:02.151Z,51.73
2017-05-17T06:32:42.554Z,51.73
2017-05-17T06:33:22.983Z,51.63
2017-05-17T06:34:03.431Z,50.57
2017-05-17T06:34:43.882Z,50.38
2017-05-17T06:35:24.253Z,50.47
2017-05-17T06:36:04.670Z,49.9
2017-05-17T06:36:45.178Z,49.82
2017-05-17T06:37:25.540Z,49.82
2017-05-17T06:38:05.934Z,49.51
2017-05-17T06:38:46.331Z,49.15
2017-05-17T06:39:27.685Z,49.02
2017-05-17T06:40:08.063Z,49.22
2017-05-17T06:40:48.603Z,49.12
2017-05-17T06:41:29.517Z,48.74
2017-05-17T06:42:10.446Z,48.74
2017-05-17T06:42:50.966Z,48.16
2017-05-17T06:43:31.296Z,48.37
2017-05-17T06:44:12.663Z,48.66
2017-05-17T06:44:53.164Z,48.08
2017-05-17T06:45:34.712Z,48.08
2017-05-17T06:46:15.115Z,47.7
2017-05-17T06:46:56.365Z,47.7
2017-05-17T06:47:36.765Z,47.6
2017-05-17T06:48:17.185Z,47.41
2017-05-17T06:48:57.636Z,47.43
2017-05-17T06:49:38.038Z,47.33
2017-05-17T06:50:18.468Z,46.75
2017-05-17T06:50:58.958Z,47.05
2017-05-17T06:51:39.362Z,46.95
2017-05-17T06:52:19.752Z,46.37
2017-05-17T06:53:00.182Z,46.56
2017-05-17T06:53:40.581Z,45.59
2017-05-17T06:54:21.065Z,45.98
2017-05-17T06:55:02.373Z,46.17
2017-05-17T06:55:42.777Z,45.79
2017-05-17T06:56:23.232Z,45.79
2017-05-17T06:57:03.663Z,45.81
2017-05-17T06:57:44.054Z,45.81
2017-05-17T06:58:24.546Z,45.62
2017-05-17T06:59:04.940Z,45.33
2017-05-17T06:59:45.327Z,45.04
2017-05-17T07:00:25.796Z,45.04
2017-05-17T07:01:06.172Z,45.04
2017-05-17T07:01:46.641Z,45.06
2017-05-17T07:02:27.046Z,44.77
2017-05-17T07:03:07.457Z,44.87
2017-05-17T07:03:47.919Z,44.67
2017-05-17T07:04:28.346Z,44.77
2017-05-17T07:05:08.741Z,44.48
2017-05-17T07:05:49.145Z,43.9
2017-05-17T07:06:29.580Z,43.71
2017-05-17T07:07:10.074Z,43.63
2017-05-17T07:07:50.400Z,44.02
2017-05-17T07:08:30.855Z,43.54
2017-05-17T07:09:11.244Z,43.24
2017-05-17T07:09:51.655Z,43.24
2017-05-17T07:10:32.090Z,43.24
2017-05-17T07:11:12.455Z,43.05
2017-05-17T07:11:54.220Z,43.17
2017-05-17T07:12:37.382Z,42.4
2017-05-17T07:13:21.158Z,42.4
2017-05-17T07:14:01.590Z,42.1
2017-05-17T07:14:42.077Z,42.2
2017-05-17T07:15:22.488Z,42.32
2017-05-17T07:16:03.440Z,42.03
2017-05-17T07:16:43.854Z,41.45
2017-05-17T07:17:24.943Z,41.25
2017-05-17T07:18:07.277Z,41.86
2017-05-17T07:18:48.267Z,42.17
2017-05-17T07:19:30.180Z,42.38
2017-05-17T07:20:11.437Z,42.6
2017-05-17T07:20:51.874Z,41.57
2017-05-17T07:21:33.909Z,41.01
2017-05-17T07:22:15.713Z,40.27
2017-05-17T07:22:59.893Z,38.75
2017-05-17T07:23:40.276Z,37.05
2017-05-17T07:24:20.702Z,35.82
2017-05-17T07:25:01.152Z,35.09
2017-05-17T07:25:41.551Z,33.75
2017-05-17T07:26:21.987Z,32.22
2017-05-17T07:27:02.414Z,31.67
2017-05-17T07:27:42.873Z,30.71
2017-05-17T07:28:23.276Z,29.38
2017-05-17T07:29:03.701Z,28.7
2017-05-17T07:29:44.135Z,28.23
2017-05-17T07:30:24.562Z,27.47
2017-05-17T07:31:05.829Z,27.39
2017-05-17T07:31:46.253Z,26.62
2017-05-17T07:32:26.690Z,26.25
2017-05-17T07:33:07.110Z,25.67
2017-05-17T07:33:48.497Z,25.29
2017-05-17T07:34:28.883Z,24.91
2017-05-17T07:35:09.377Z,24.52
2017-05-17T07:35:49.878Z,23.94
2017-05-17T07:36:30.339Z,23.06
2017-05-17T07:37:10.722Z,22.77
2017-05-17T07:37:51.170Z,22.58
2017-05-17T07:38:31.909Z,22.18
2017-05-17T07:39:12.398Z,22
2017-05-17T07:39:52.887Z,22.09
2017-05-17T07:41:50.576Z,21.22
2017-05-17T07:42:31.012Z,21.03
2017-05-17T07:43:11.448Z,20.54
2017-05-17T07:43:51.869Z,19.67
2017-05-17T07:44:32.378Z,19.27
2017-05-17T07:46:30.111Z,19.05
2017-05-17T07:47:10.592Z,18.45
2017-05-17T07:47:51.025Z,18.75
2017-05-17T07:50:07.038Z,18.45
2017-05-17T07:50:47.465Z,17.96
2017-05-17T07:51:27.911Z,17.16
2017-05-17T07:52:08.338Z,16.56
2017-05-17T07:52:48.753Z,16.46
2017-05-17T07:53:29.217Z,16.46
2017-05-17T07:54:09.677Z,16.57
2017-05-17T07:54:50.154Z,16.17
2017-05-17T07:55:30.609Z,16.48
2017-05-17T07:56:11.045Z,16.28
2017-05-17T07:56:51.469Z,15.99
2017-05-17T07:57:31.964Z,15.79
2017-05-17T07:58:12.371Z,15.59
2017-05-17T07:58:53.675Z,15.19
2017-05-17T07:59:34.063Z,15.09
2017-05-17T08:00:14.504Z,15.3
2017-05-17T08:00:54.956Z,15.09
2017-05-17T08:01:35.388Z,14.1
2017-05-17T08:02:15.826Z,14.2
2017-05-17T08:02:56.233Z,14.4
2017-05-17T08:03:36.699Z,14.79
2017-05-17T08:05:26.043Z,14.11
2017-05-17T08:06:06.499Z,14.3
2017-05-17T08:06:46.964Z,14.1
2017-05-17T08:07:27.370Z,13.7
2017-05-17T08:08:08.456Z,13.7
2017-05-17T08:08:49.510Z,13.91
2017-05-17T08:09:29.926Z,13.9
2017-05-17T08:10:10.370Z,13.51
2017-05-17T08:10:51.461Z,13.52
2017-05-17T08:11:31.933Z,13.42
2017-05-17T08:12:12.315Z,12.83
2017-05-17T08:12:52.734Z,12.73
2017-05-17T08:13:33.203Z,12.73
2017-05-17T08:14:13.605Z,12.62
2017-05-17T08:14:54.028Z,13.01
2017-05-17T08:15:34.449Z,13.02
2017-05-17T08:16:14.878Z,12.73
2017-05-17T08:16:55.315Z,12.13
2017-05-17T08:17:35.788Z,11.84
2017-05-17T08:18:16.255Z,12.04
2017-05-17T08:18:56.631Z,11.44
2017-05-17T08:19:37.084Z,11.44
2017-05-17T08:20:17.514Z,11.25
2017-05-17T08:20:57.963Z,11.15
2017-05-17T08:21:38.388Z,10.96
2017-05-17T08:22:18.810Z,10.55
2017-05-17T08:22:59.230Z,11.04
2017-05-17T08:23:39.696Z,11.04
2017-05-17T08:24:20.097Z,11.04
2017-05-17T08:25:01.440Z,11.04
2017-05-17T08:25:41.863Z,10.65
2017-05-17T08:26:22.350Z,10.75
2017-05-17T08:27:02.744Z,10.96
2017-05-17T08:27:43.164Z,10.66
2017-05-17T08:28:23.579Z,10.17
2017-05-17T08:29:04.566Z,10.36
2017-05-17T08:29:45.959Z,9.97
2017-05-17T08:30:26.383Z,9.88
2017-05-17T08:31:06.844Z,9.68
2017-05-17T08:31:47.268Z,9.08
2017-05-17T08:32:27.720Z,8.69
2017-05-17T08:33:08.141Z,8.58
2017-05-17T08:33:48.578Z,8.78
2017-05-17T08:34:29.010Z,9.28
2017-05-17T08:35:09.451Z,9.08
2017-05-17T08:35:49.906Z,9.08
2017-05-17T08:36:30.339Z,9.08
2017-05-17T08:37:10.755Z,8.98
2017-05-17T08:37:51.194Z,8.98
2017-05-17T08:38:31.650Z,9.08
2017-05-17T08:39:12.105Z,9.28
2017-05-17T08:41:25.730Z,8.78
2017-05-17T08:42:06.190Z,8.58
2017-05-17T08:42:46.654Z,8.98
2017-05-17T08:43:27.085Z,8.98
2017-05-17T08:44:07.500Z,8.48
2017-05-17T08:46:05.305Z,8.78
2017-05-17T08:46:45.766Z,8.37
2017-05-17T08:47:26.216Z,8.67
2017-05-17T08:48:06.681Z,8.67
2017-05-17T08:48:47.093Z,8.87
2017-05-17T08:49:27.530Z,8.58
2017-05-17T08:50:07.966Z,8.37
2017-05-17T08:50:48.415Z,8.58
2017-05-17T08:51:28.823Z,8.69
2017-05-17T08:52:09.258Z,8.08
2017-05-17T08:52:49.672Z,8.18
2017-05-17T08:53:30.098Z,8.48
2017-05-17T08:55:28.114Z,8.67
2017-05-17T08:56:08.552Z,8.47
2017-05-17T08:56:49.004Z,8.67
2017-05-17T08:57:29.446Z,8.48
2017-05-17T08:58:09.880Z,8.18
2017-05-17T08:58:50.312Z,8.29
2017-05-17T08:59:30.752Z,8.09
2017-05-17T09:00:11.160Z,8.09
2017-05-17T09:00:51.626Z,7.98
2017-05-17T09:01:32.066Z,8.08
2017-05-17T09:02:12.488Z,8.28
2017-05-17T09:02:52.953Z,8.47